createdAt,value
2022-09-23T00:02:30.975Z,98979.97
2022-09-23T00:05:16.244Z,98981.75
2022-09-23T00:08:01.633Z,98975.25
2022-09-23T00:10:47.061Z,98974.28
2022-09-23T00:13:32.849Z,98967.00
2022-09-23T00:16:28.075Z,98972.56
2022-09-23T00:19:13.242Z,98955.59
2022-09-23T00:21:59.805Z,98960.94
2022-09-23T00:24:44.695Z,98964.88
2022-09-23T00:27:30.344Z,98960.28
2022-09-23T00:30:15.199Z,98956.50
2022-09-23T00:33:00.615Z,98957.72
2022-09-23T00:35:46.789Z,98959.72
2022-09-23T00:38:33.520Z,98952.88
2022-09-23T00:41:18.509Z,98950.97
2022-09-23T00:44:43.972Z,98956.91
2022-09-23T00:47:39.076Z,98960.03
2022-09-23T00:50:31.702Z,98958.25
2022-09-23T00:53:21.456Z,98959.25
2022-09-23T00:56:09.689Z,98963.44
2022-09-23T00:58:54.581Z,98960.31
2022-09-23T01:01:39.900Z,98958.53
2022-09-23T01:04:27.599Z,98956.63
2022-09-23T01:07:13.172Z,98954.91
2022-09-23T01:10:00.064Z,98958.81
2022-09-23T01:13:15.614Z,98957.59
2022-09-23T01:16:09.399Z,98966.66
2022-09-23T01:18:58.681Z,98959.63
2022-09-23T01:21:56.502Z,98959.81
2022-09-23T01:24:58.875Z,98956.69
2022-09-23T01:28:14.002Z,98958.81
2022-09-23T01:31:04.719Z,98957.84
2022-09-23T01:33:50.562Z,98957.84
2022-09-23T01:36:55.545Z,98962.03
2022-09-23T01:39:57.564Z,98963.66
2022-09-23T01:42:55.831Z,98953.03
2022-09-23T01:45:46.180Z,98966.66
2022-09-23T01:48:44.190Z,98959.94
2022-09-23T01:51:42.921Z,98964.09
2022-09-23T01:54:50.107Z,98964.66
2022-09-23T01:57:43.023Z,98957.63
2022-09-23T02:00:34.372Z,98960.59
2022-09-23T02:03:33.461Z,98953.00
2022-09-23T02:06:26.851Z,98955.31
2022-09-23T02:09:16.243Z,98949.63
2022-09-23T02:12:08.271Z,98948.84
2022-09-23T02:15:03.393Z,98958.13
2022-09-23T02:17:53.812Z,98958.88
2022-09-23T02:20:41.815Z,98957.09
2022-09-23T02:23:33.390Z,98957.25
2022-09-23T02:26:25.171Z,98958.59
2022-09-23T02:29:24.112Z,98965.06
2022-09-23T02:32:29.822Z,98965.31
2022-09-23T02:35:32.508Z,98960.38
2022-09-23T02:38:25.496Z,98955.47
2022-09-23T02:41:15.335Z,98958.59
2022-09-23T02:44:07.676Z,98952.69
2022-09-23T02:46:55.243Z,98961.94
2022-09-23T02:49:40.262Z,98959.63
2022-09-23T02:52:25.276Z,98959.03
2022-09-23T02:55:11.696Z,98955.69
2022-09-23T02:57:57.379Z,98954.91
2022-09-23T03:01:22.988Z,98951.31
2022-09-23T03:04:26.139Z,98956.47
2022-09-23T03:07:20.958Z,98964.38
2022-09-23T03:10:18.923Z,98959.03
2022-09-23T03:13:14.921Z,98961.94
2022-09-23T03:16:12.405Z,98961.53
2022-09-23T03:19:00.521Z,98960.97
2022-09-23T03:21:51.162Z,98960.19
2022-09-23T03:24:39.306Z,98957.63
2022-09-23T03:27:28.530Z,98950.47
2022-09-23T03:30:13.831Z,98960.38
2022-09-23T03:33:00.356Z,98964.50
2022-09-23T03:36:13.039Z,98960.75
2022-09-23T03:39:05.990Z,98959.19
2022-09-23T03:41:54.772Z,98961.94
2022-09-23T03:44:48.383Z,98961.53
2022-09-23T03:47:33.345Z,98962.31
2022-09-23T03:50:18.465Z,98959.75
2022-09-23T03:53:03.430Z,98957.63
2022-09-23T03:55:48.414Z,98955.06
2022-09-23T03:58:33.475Z,98951.91
2022-09-23T04:01:18.359Z,98957.25
2022-09-23T04:04:03.350Z,98950.56
2022-09-23T04:06:48.263Z,98949.78
2022-09-23T04:09:34.531Z,98952.91
2022-09-23T04:12:19.506Z,98954.25
2022-09-23T04:15:04.786Z,98950.34
2022-09-23T04:17:49.659Z,98942.88
2022-09-23T04:20:34.585Z,98948.00
2022-09-23T04:23:19.484Z,98942.28
2022-09-23T04:26:05.617Z,98949.97
2022-09-23T04:28:50.406Z,98953.31
2022-09-23T04:31:35.549Z,98943.63
2022-09-23T04:34:20.657Z,98944.84
2022-09-23T04:37:06.132Z,98951.56
2022-09-23T04:39:50.863Z,98950.56
2022-09-23T04:42:35.860Z,98948.56
2022-09-23T04:45:20.881Z,98957.81
2022-09-23T04:48:05.884Z,98947.34
2022-09-23T04:50:50.946Z,98952.69
2022-09-23T04:53:37.743Z,98956.25
2022-09-23T04:56:28.239Z,98946.19
2022-09-23T04:59:12.948Z,98949.56
2022-09-23T05:01:57.792Z,98948.34
2022-09-23T05:04:42.777Z,98950.47
2022-09-23T05:07:27.687Z,98951.41
2022-09-23T05:10:13.107Z,98954.97
2022-09-23T05:12:58.840Z,98949.84
2022-09-23T05:15:43.804Z,98950.28
2022-09-23T05:18:45.920Z,98949.34
2022-09-23T05:21:31.186Z,98962.09
2022-09-23T05:24:16.219Z,98963.81
2022-09-23T05:27:01.102Z,98964.59
2022-09-23T05:29:47.115Z,98958.81
2022-09-23T05:32:32.918Z,98960.09
2022-09-23T05:35:17.996Z,98950.56
2022-09-23T05:38:03.152Z,98959.44
2022-09-23T05:41:01.416Z,98963.06
2022-09-23T05:43:50.373Z,98956.44
2022-09-23T05:46:36.432Z,98958.66
2022-09-23T05:49:33.050Z,98967.94
2022-09-23T05:52:27.272Z,98962.94
2022-09-23T05:55:12.873Z,98966.63
2022-09-23T05:57:59.129Z,98975.91
2022-09-23T06:00:44.160Z,98967.19
2022-09-23T06:03:29.130Z,98971.63
2022-09-23T06:06:17.339Z,98971.47
2022-09-23T06:09:03.687Z,98969.72
2022-09-23T06:11:50.843Z,98974.84
2022-09-23T06:14:36.648Z,98971.47
2022-09-23T06:17:22.278Z,98967.94
2022-09-23T06:20:07.676Z,98968.81
2022-09-23T06:22:55.605Z,98978.22
2022-09-23T06:25:41.110Z,98974.31
2022-09-23T06:28:30.748Z,98986.63
2022-09-23T06:31:17.491Z,98982.50
2022-09-23T06:34:11.748Z,98987.22
2022-09-23T06:37:17.961Z,98978.94
2022-09-23T06:40:24.555Z,98989.84
2022-09-23T06:43:18.252Z,98988.19
2022-09-23T06:46:31.252Z,98991.13
2022-09-23T06:49:16.443Z,98976.50
2022-09-23T06:52:03.595Z,98981.53
2022-09-23T06:54:52.424Z,98989.81
2022-09-23T06:57:45.797Z,98988.38
2022-09-23T07:00:37.330Z,98980.63
2022-09-23T07:03:24.434Z,98986.47
2022-09-23T07:06:12.727Z,98988.25
2022-09-23T07:08:58.368Z,98993.84
2022-09-23T07:11:43.559Z,98988.38
2022-09-23T07:14:29.771Z,98980.13
2022-09-23T07:17:16.821Z,98984.06
2022-09-23T07:20:09.344Z,98991.78
2022-09-23T07:22:54.659Z,98988.78
2022-09-23T07:25:40.414Z,98989.31
2022-09-23T07:28:40.320Z,98990.56
2022-09-23T07:31:38.670Z,98986.53
2022-09-23T07:34:28.453Z,98988.66
2022-09-23T07:37:17.012Z,98984.31
2022-09-23T07:40:07.353Z,98983.75
2022-09-23T07:43:13.532Z,98974.25
2022-09-23T07:47:06.746Z,98983.34
2022-09-23T07:49:54.016Z,98981.19
2022-09-23T07:52:41.779Z,98977.06
2022-09-23T07:55:26.630Z,98971.22
2022-09-23T07:58:11.491Z,98971.28
2022-09-23T08:01:09.388Z,98970.78
2022-09-23T08:03:59.383Z,98965.63
2022-09-23T08:06:47.255Z,98976.94
2022-09-23T08:09:38.900Z,98964.44
2022-09-23T08:12:24.081Z,98962.91
2022-09-23T08:15:12.505Z,98974.38
2022-09-23T08:18:02.460Z,98963.16
2022-09-23T08:20:48.194Z,98961.66
2022-09-23T08:23:33.912Z,98956.78
2022-09-23T08:26:22.107Z,98950.09
2022-09-23T08:29:11.466Z,98945.97
2022-09-23T08:31:57.299Z,98948.94
2022-09-23T08:34:42.532Z,98959.31
2022-09-23T08:37:27.489Z,98951.09
2022-09-23T08:40:12.556Z,98954.50
2022-09-23T08:43:01.963Z,98950.94
2022-09-23T08:45:55.231Z,98942.66
2022-09-23T08:48:47.461Z,98946.94
2022-09-23T08:51:44.943Z,98948.44
2022-09-23T08:54:53.242Z,98949.75
2022-09-23T08:58:26.557Z,98944.84
2022-09-23T09:01:40.957Z,98950.38
2022-09-23T09:04:41.962Z,98953.09
2022-09-23T09:07:37.002Z,98953.09
2022-09-23T09:10:29.170Z,98953.06
2022-09-23T09:13:48.380Z,98940.28
2022-09-23T09:17:20.152Z,98943.63
2022-09-23T09:20:35.106Z,98942.63
2022-09-23T09:23:34.283Z,98930.47
2022-09-23T09:26:29.109Z,98927.03
2022-09-23T09:29:36.126Z,98930.81
2022-09-23T09:33:15.053Z,98937.03
2022-09-23T09:36:09.284Z,98941.16
2022-09-23T09:38:56.604Z,98929.41
2022-09-23T09:41:47.251Z,98930.34
2022-09-23T09:44:40.042Z,98934.84
2022-09-23T09:48:05.295Z,98930.38
2022-09-23T09:50:52.981Z,98919.94
2022-09-23T09:53:38.285Z,98930.47
2022-09-23T09:56:33.879Z,98924.72
2022-09-23T09:59:25.597Z,98914.72
2022-09-23T10:02:13.803Z,98917.28
2022-09-23T10:05:01.535Z,98916.44
2022-09-23T10:07:47.981Z,98910.84
2022-09-23T10:10:33.872Z,98915.38
2022-09-23T10:13:26.863Z,98912.34
2022-09-23T10:16:15.025Z,98915.84
2022-09-23T10:19:16.812Z,98921.31
2022-09-23T10:22:08.174Z,98922.44
2022-09-23T10:24:54.544Z,98916.25
2022-09-23T10:27:39.539Z,98919.31
2022-09-23T10:30:27.631Z,98916.09
2022-09-23T10:33:26.486Z,98919.44
2022-09-23T10:36:11.368Z,98914.78
2022-09-23T10:39:27.295Z,98926.28
2022-09-23T10:42:43.593Z,98920.53
2022-09-23T10:45:57.676Z,98925.44
2022-09-23T10:49:16.390Z,98922.53
2022-09-23T10:52:22.713Z,98921.22
2022-09-23T10:55:16.275Z,98916.88
2022-09-23T10:58:03.702Z,98915.13
2022-09-23T11:01:15.957Z,98908.28
2022-09-23T11:04:09.580Z,98907.50
2022-09-23T11:11:46.262Z,98898.66
2022-09-23T11:15:01.320Z,98895.72
2022-09-23T11:18:06.060Z,98901.28
2022-09-23T11:21:38.410Z,98897.19
2022-09-23T11:24:41.266Z,98898.13
2022-09-23T11:27:35.882Z,98901.00
2022-09-23T11:30:21.242Z,98900.75
2022-09-23T11:33:32.063Z,98898.19
2022-09-23T11:36:38.264Z,98902.91
2022-09-23T11:39:30.075Z,98912.22
2022-09-23T11:42:24.675Z,98904.50
2022-09-23T11:45:21.634Z,98906.22
2022-09-23T11:48:20.690Z,98903.09
2022-09-23T11:51:10.848Z,98891.47
2022-09-23T11:54:01.458Z,98899.28
2022-09-23T11:56:51.502Z,98886.13
2022-09-23T11:59:45.699Z,98894.72
2022-09-23T12:02:40.239Z,98891.44
2022-09-23T12:05:32.661Z,98891.97
2022-09-23T12:08:28.713Z,98890.66
2022-09-23T12:11:21.463Z,98889.72
2022-09-23T12:14:40.405Z,98885.66
2022-09-23T12:17:40.788Z,98888.66
2022-09-23T12:20:43.799Z,98883.66
2022-09-23T12:24:02.699Z,98882.44
2022-09-23T12:26:56.221Z,98881.81
2022-09-23T12:29:41.706Z,98878.59
2022-09-23T12:32:27.401Z,98881.50
2022-09-23T12:35:38.135Z,98889.22
2022-09-23T12:38:32.618Z,98886.09
2022-09-23T12:41:36.843Z,98873.31
2022-09-23T12:44:41.181Z,98873.72
2022-09-23T12:47:28.405Z,98884.72
2022-09-23T12:50:50.997Z,98895.25
2022-09-23T12:53:35.880Z,98886.31
2022-09-23T12:56:25.990Z,98882.63
2022-09-23T12:59:16.802Z,98877.91
2022-09-23T13:02:23.853Z,98878.09
2022-09-23T13:05:41.615Z,98872.25
2022-09-23T13:08:26.744Z,98879.75
2022-09-23T13:11:28.134Z,98871.78
2022-09-23T13:14:20.510Z,98881.91
2022-09-23T13:17:26.482Z,98870.25
2022-09-23T13:20:20.444Z,98877.22
2022-09-23T13:23:16.594Z,98870.38
2022-09-23T13:26:12.087Z,98873.19
2022-09-23T13:28:58.411Z,98868.56
2022-09-23T13:31:45.147Z,98872.72
2022-09-23T13:34:33.020Z,98870.88
2022-09-23T13:37:22.661Z,98871.75
2022-09-23T13:40:09.355Z,98866.84
2022-09-23T13:43:04.607Z,98870.75
2022-09-23T13:45:50.087Z,98876.94
2022-09-23T13:48:35.384Z,98868.56
2022-09-23T13:51:29.808Z,98865.22
2022-09-23T13:54:28.217Z,98866.53
2022-09-23T13:57:33.197Z,98867.09
2022-09-23T14:00:20.861Z,98873.25
2022-09-23T14:03:31.173Z,98867.16
2022-09-23T14:06:18.995Z,98864.25
2022-09-23T14:09:06.005Z,98863.75
2022-09-23T14:11:51.568Z,98862.59
2022-09-23T14:14:38.973Z,98860.16
2022-09-23T14:17:23.871Z,98856.59
2022-09-23T14:20:17.345Z,98852.75
2022-09-23T14:23:14.217Z,98857.13
2022-09-23T14:26:01.062Z,98857.78
2022-09-23T14:28:47.146Z,98852.56
2022-09-23T14:31:32.382Z,98861.47
2022-09-23T14:34:39.258Z,98861.28
2022-09-23T14:37:54.904Z,98871.53
2022-09-23T14:41:14.548Z,98874.41
2022-09-23T14:44:01.778Z,98874.94
2022-09-23T14:46:57.009Z,98879.19
2022-09-23T14:50:09.911Z,98884.16
2022-09-23T14:52:54.975Z,98878.88
2022-09-23T14:55:40.986Z,98884.47
2022-09-23T14:58:28.041Z,98886.25
2022-09-23T15:01:34.125Z,98889.53
2022-09-23T15:04:22.257Z,98888.88
2022-09-23T15:07:17.894Z,98900.53
2022-09-23T15:10:06.248Z,98899.34
2022-09-23T15:12:52.962Z,98911.22
2022-09-23T15:15:37.977Z,98907.19
2022-09-23T15:18:30.444Z,98897.59
2022-09-23T15:21:18.827Z,98899.47
2022-09-23T15:24:03.613Z,98903.81
2022-09-23T15:26:49.442Z,98902.31
2022-09-23T15:29:34.045Z,98907.31
2022-09-23T15:32:19.972Z,98902.75
2022-09-23T15:35:05.384Z,98898.59
2022-09-23T15:37:51.051Z,98909.09
2022-09-23T15:40:37.181Z,98903.72
2022-09-23T15:43:24.533Z,98902.31
2022-09-23T15:46:30.013Z,98910.56
2022-09-23T15:49:35.629Z,98905.19
2022-09-23T15:52:22.161Z,98910.16
2022-09-23T15:55:20.730Z,98909.38
2022-09-23T15:58:05.684Z,98910.78
2022-09-23T16:00:56.252Z,98912.78
2022-09-23T16:03:41.753Z,98915.56
2022-09-23T16:06:27.410Z,98917.78
2022-09-23T16:09:13.007Z,98926.16
2022-09-23T16:12:01.548Z,98925.25
2022-09-23T16:14:46.233Z,98922.31
2022-09-23T16:17:31.699Z,98921.75
2022-09-23T16:20:17.290Z,98929.88
2022-09-23T16:23:37.031Z,98922.06
2022-09-23T16:26:39.072Z,98925.66
2022-09-23T16:29:24.022Z,98917.94
2022-09-23T16:32:09.302Z,98918.72
2022-09-23T16:34:56.279Z,98916.59
2022-09-23T16:37:46.623Z,98919.59
2022-09-23T16:40:32.077Z,98919.09
2022-09-23T16:43:16.925Z,98913.78
2022-09-23T16:46:01.766Z,98926.19
2022-09-23T16:48:52.069Z,98921.44
2022-09-23T16:51:38.302Z,98920.78
2022-09-23T16:54:23.925Z,98916.72
2022-09-23T16:57:09.241Z,98920.50
2022-09-23T17:00:12.429Z,98915.00
2022-09-23T17:03:15.856Z,98912.00
2022-09-23T17:06:07.809Z,98918.72
2022-09-23T17:08:53.661Z,98913.44
2022-09-23T17:11:38.421Z,98914.00
2022-09-23T17:14:23.323Z,98924.69
2022-09-23T17:17:08.378Z,98913.50
2022-09-23T17:19:53.365Z,98921.41
2022-09-23T17:22:38.305Z,98924.56
2022-09-23T17:25:23.810Z,98922.09
2022-09-23T17:28:08.952Z,98921.72
2022-09-23T17:31:04.378Z,98914.41
2022-09-23T17:33:49.425Z,98915.53
2022-09-23T17:36:34.088Z,98914.69
2022-09-23T17:39:19.128Z,98924.44
2022-09-23T17:42:04.489Z,98918.84
2022-09-23T17:44:49.650Z,98913.31
2022-09-23T17:47:37.351Z,98911.78
2022-09-23T17:50:26.284Z,98911.16
2022-09-23T17:53:13.596Z,98914.88
2022-09-23T17:56:03.839Z,98913.66
2022-09-23T17:58:49.733Z,98914.56
2022-09-23T18:01:35.079Z,98912.00
2022-09-23T18:04:20.534Z,98910.81
2022-09-23T18:07:05.349Z,98905.91
2022-09-23T18:09:50.476Z,98910.47
2022-09-23T18:12:35.445Z,98911.03
2022-09-23T18:15:20.459Z,98906.69
2022-09-23T18:18:05.763Z,98907.66
2022-09-23T18:20:50.477Z,98913.78
2022-09-23T18:23:36.867Z,98908.88
2022-09-23T18:26:23.529Z,98908.88
2022-09-23T18:29:08.806Z,98906.75
2022-09-23T18:31:53.670Z,98910.28
2022-09-23T18:34:38.525Z,98910.09
2022-09-23T18:37:23.651Z,98915.22
2022-09-23T18:40:12.599Z,98915.00
2022-09-23T18:42:59.755Z,98911.66
2022-09-23T18:45:54.821Z,98912.25
2022-09-23T18:48:59.088Z,98917.16
2022-09-23T18:51:57.420Z,98911.44
2022-09-23T18:54:43.455Z,98905.34
2022-09-23T18:57:28.197Z,98907.91
2022-09-23T19:00:13.310Z,98902.19
2022-09-23T19:02:58.058Z,98909.88
2022-09-23T19:05:43.104Z,98913.22
2022-09-23T19:08:28.197Z,98902.19
2022-09-23T19:11:13.280Z,98904.97
2022-09-23T19:14:02.592Z,98902.59
2022-09-23T19:16:48.573Z,98902.41
2022-09-23T19:19:33.460Z,98892.34
2022-09-23T19:22:18.880Z,98894.16
2022-09-23T19:25:04.272Z,98891.78
2022-09-23T19:27:49.190Z,98891.00
2022-09-23T19:30:35.136Z,98889.03
2022-09-23T19:33:20.524Z,98881.53
2022-09-23T19:36:05.682Z,98883.91
2022-09-23T19:38:53.699Z,98883.44
2022-09-23T19:41:38.515Z,98885.25
2022-09-23T19:44:24.786Z,98888.38
2022-09-23T19:47:14.824Z,98886.78
2022-09-23T19:49:59.693Z,98880.31
2022-09-23T19:52:44.676Z,98883.09
2022-09-23T19:55:30.666Z,98881.75
2022-09-23T19:58:15.643Z,98881.94
2022-09-23T20:01:00.911Z,98882.84
2022-09-23T20:03:46.608Z,98883.25
2022-09-23T20:06:33.712Z,98891.00
2022-09-23T20:09:18.837Z,98881.81
2022-09-23T20:12:04.252Z,98877.19
2022-09-23T20:14:50.944Z,98890.28
2022-09-23T20:17:35.948Z,98880.94
2022-09-23T20:20:20.724Z,98883.41
2022-09-23T20:23:06.092Z,98887.44
2022-09-23T20:26:16.945Z,98892.47
2022-09-23T20:29:02.094Z,98893.69
2022-09-23T20:31:47.404Z,98893.31
2022-09-23T20:34:33.914Z,98888.59
2022-09-23T20:37:20.487Z,98896.81
2022-09-23T20:40:05.680Z,98895.28
2022-09-23T20:42:50.420Z,98885.03
2022-09-23T20:45:35.389Z,98889.94
2022-09-23T20:48:21.727Z,98887.75
2022-09-23T20:51:06.452Z,98880.44
2022-09-23T20:53:52.507Z,98879.22
2022-09-23T20:56:37.422Z,98884.78
2022-09-23T20:59:22.453Z,98878.50
2022-09-23T21:02:07.413Z,98879.13
2022-09-23T21:04:53.173Z,98875.78
2022-09-23T21:07:38.382Z,98874.00
2022-09-23T21:10:23.667Z,98876.72
2022-09-23T21:13:08.243Z,98884.34
2022-09-23T21:15:53.282Z,98875.84
2022-09-23T21:18:38.416Z,98873.22
2022-09-23T21:21:23.481Z,98878.28
2022-09-23T21:24:36.056Z,98875.88
2022-09-23T21:27:13.404Z,98875.25
2022-09-23T21:29:58.549Z,98866.13
2022-09-23T21:32:43.377Z,98869.06
2022-09-23T21:35:28.352Z,98873.00
2022-09-23T21:38:13.258Z,98873.75
2022-09-23T21:41:00.079Z,98876.13
2022-09-23T21:43:45.250Z,98883.81
2022-09-23T21:46:33.247Z,98874.34
2022-09-23T21:49:18.020Z,98870.34
2022-09-23T21:52:02.909Z,98878.41
2022-09-23T21:54:48.288Z,98871.28
2022-09-23T21:57:32.952Z,98871.28
2022-09-23T22:00:17.971Z,98870.28
2022-09-23T22:03:02.679Z,98876.19
2022-09-23T22:05:47.736Z,98875.97
2022-09-23T22:08:36.406Z,98878.31
2022-09-23T22:11:41.688Z,98872.22
2022-09-23T22:14:27.065Z,98867.31
2022-09-23T22:17:13.935Z,98870.84
2022-09-23T22:19:58.530Z,98871.28
2022-09-23T22:22:43.942Z,98871.84
2022-09-23T22:25:29.240Z,98867.13
2022-09-23T22:28:32.828Z,98871.50
2022-09-23T22:31:36.312Z,98864.81
2022-09-23T22:34:48.424Z,98868.50
2022-09-23T22:37:34.159Z,98871.28
2022-09-23T22:40:19.486Z,98866.38
2022-09-23T22:43:04.510Z,98867.13
2022-09-23T22:45:53.028Z,98868.16
2022-09-23T22:48:37.797Z,98869.13
2022-09-23T22:51:22.803Z,98869.38
2022-09-23T22:54:08.637Z,98865.63
2022-09-23T22:56:53.776Z,98868.63
2022-09-23T22:59:38.523Z,98861.38
2022-09-23T23:02:23.598Z,98861.00
2022-09-23T23:05:08.710Z,98858.31
2022-09-23T23:07:53.650Z,98865.28
2022-09-23T23:10:38.793Z,98860.34
2022-09-23T23:13:30.874Z,98867.84
2022-09-23T23:16:15.941Z,98865.47
2022-09-23T23:19:06.499Z,98867.84
2022-09-23T23:21:51.663Z,98870.75
2022-09-23T23:24:36.863Z,98862.88
2022-09-23T23:27:21.666Z,98862.44
2022-09-23T23:30:07.730Z,98862.63
2022-09-23T23:32:52.529Z,98870.56
2022-09-23T23:35:37.604Z,98865.28
2022-09-23T23:38:22.613Z,98862.56
2022-09-23T23:41:10.931Z,98867.72
2022-09-23T23:43:58.350Z,98864.38
2022-09-23T23:46:42.982Z,98861.47
2022-09-23T23:49:28.125Z,98870.16
2022-09-23T23:52:13.012Z,98861.66
2022-09-23T23:54:57.752Z,98851.44
2022-09-23T23:57:42.964Z,98851.22
